sensor_id;sensor_type;location;lat;lon;timestamp;P1;durP1;ratioP1;P2;durP2;ratioP2
48703;SDS011;34502;51.296;16.918;2023-12-14T14:21:40;59.03;;;32.20;;
48703;SDS011;34502;51.296;16.918;2023-12-14T14:24:06;58.95;;;33.20;;
48703;SDS011;34502;51.296;16.918;2023-12-14T14:26:35;63.90;;;34.35;;
48703;SDS011;34502;51.296;16.918;2023-12-14T14:29:03;70.28;;;39.10;;
48703;SDS011;34502;51.296;16.918;2023-12-14T14:31:29;73.03;;;40.47;;
48703;SDS011;34502;51.296;16.918;2023-12-14T14:33:58;70.90;;;38.50;;
48703;SDS011;34502;51.296;16.918;2023-12-14T14:36:26;58.95;;;35.88;;
48703;SDS011;34502;51.296;16.918;2023-12-14T14:38:53;61.35;;;34.50;;
48703;SDS011;34502;51.296;16.918;2023-12-14T14:41:24;66.18;;;37.63;;
48703;SDS011;34502;51.296;16.918;2023-12-14T14:43:53;71.95;;;40.40;;
48703;SDS011;34502;51.296;16.918;2023-12-14T14:46:22;74.82;;;43.95;;
48703;SDS011;34502;51.296;16.918;2023-12-14T14:48:48;66.22;;;39.15;;
48703;SDS011;34502;51.296;16.918;2023-12-14T14:51:14;69.18;;;41.20;;
48703;SDS011;34502;51.296;16.918;2023-12-14T14:53:44;61.75;;;37.63;;
48703;SDS011;34502;51.296;16.918;2023-12-14T14:56:12;63.70;;;37.83;;
48703;SDS011;34502;51.296;16.918;2023-12-14T14:58:40;64.63;;;38.80;;
48703;SDS011;34502;51.296;16.918;2023-12-14T15:01:11;58.70;;;35.17;;
48703;SDS011;34502;51.296;16.918;2023-12-14T15:03:37;55.05;;;33.28;;
48703;SDS011;34502;51.296;16.918;2023-12-14T15:06:03;60.00;;;36.65;;
48703;SDS011;34502;51.296;16.918;2023-12-14T15:08:29;59.78;;;37.67;;
48703;SDS011;34502;51.296;16.918;2023-12-14T15:10:58;54.83;;;35.13;;
48703;SDS011;34502;51.296;16.918;2023-12-14T15:13:25;51.45;;;32.70;;
48703;SDS011;34502;51.296;16.918;2023-12-14T15:15:51;54.60;;;33.75;;
48703;SDS011;34502;51.296;16.918;2023-12-14T15:18:18;56.58;;;35.33;;
48703;SDS011;34502;51.296;16.918;2023-12-14T15:20:44;53.35;;;34.55;;
48703;SDS011;34502;51.296;16.918;2023-12-14T15:23:10;53.10;;;33.03;;
48703;SDS011;34502;51.296;16.918;2023-12-14T15:25:39;51.83;;;33.65;;
48703;SDS011;34502;51.296;16.918;2023-12-14T15:28:05;55.83;;;33.83;;
48703;SDS011;34502;51.296;16.918;2023-12-14T15:30:32;54.97;;;31.73;;
48703;SDS011;34502;51.296;16.918;2023-12-14T15:32:58;48.67;;;30.02;;
48703;SDS011;34502;51.296;16.918;2023-12-14T15:35:25;54.72;;;33.65;;
48703;SDS011;34502;51.296;16.918;2023-12-14T15:37:51;54.70;;;33.75;;
48703;SDS011;34502;51.296;16.918;2023-12-14T15:40:17;44.97;;;28.33;;
48703;SDS011;34502;51.296;16.918;2023-12-14T15:42:43;46.97;;;29.92;;
48703;SDS011;34502;51.296;16.918;2023-12-14T15:45:15;62.15;;;36.80;;
48703;SDS011;34502;51.296;16.918;2023-12-14T15:47:42;55.67;;;36.17;;
48703;SDS011;34502;51.296;16.918;2023-12-14T15:50:08;47.78;;;31.17;;
48703;SDS011;34502;51.296;16.918;2023-12-14T15:52:37;75.43;;;41.80;;
48703;SDS011;34502;51.296;16.918;2023-12-14T15:55:03;82.05;;;48.65;;
48703;SDS011;34502;51.296;16.918;2023-12-14T15:57:31;67.85;;;40.90;;
48703;SDS011;34502;51.296;16.918;2023-12-14T15:59:59;68.80;;;40.92;;
48703;SDS011;34502;51.296;16.918;2023-12-14T16:02:26;68.47;;;40.88;;
48703;SDS011;34502;51.296;16.918;2023-12-14T16:04:52;56.42;;;34.67;;
48703;SDS011;34502;51.296;16.918;2023-12-14T16:07:18;57.60;;;35.35;;
48703;SDS011;34502;51.296;16.918;2023-12-14T16:09:46;58.28;;;36.50;;
48703;SDS011;34502;51.296;16.918;2023-12-14T16:12:13;61.50;;;38.58;;
48703;SDS011;34502;51.296;16.918;2023-12-14T16:14:39;65.32;;;38.85;;
48703;SDS011;34502;51.296;16.918;2023-12-14T16:17:05;64.80;;;39.83;;
48703;SDS011;34502;51.296;16.918;2023-12-14T16:19:31;70.38;;;39.47;;
48703;SDS011;34502;51.296;16.918;2023-12-14T16:21:58;66.72;;;40.85;;
48703;SDS011;34502;51.296;16.918;2023-12-14T16:24:24;71.72;;;42.67;;
48703;SDS011;34502;51.296;16.918;2023-12-14T16:26:50;67.75;;;41.70;;
48703;SDS011;34502;51.296;16.918;2023-12-14T16:29:18;71.30;;;42.60;;
48703;SDS011;34502;51.296;16.918;2023-12-14T16:31:45;67.35;;;41.58;;
48703;SDS011;34502;51.296;16.918;2023-12-14T16:34:12;65.93;;;41.42;;
48703;SDS011;34502;51.296;16.918;2023-12-14T16:36:41;71.57;;;43.60;;
48703;SDS011;34502;51.296;16.918;2023-12-14T16:39:12;70.00;;;41.95;;
48703;SDS011;34502;51.296;16.918;2023-12-14T16:41:38;67.93;;;41.65;;
48703;SDS011;34502;51.296;16.918;2023-12-14T16:44:04;71.82;;;44.55;;
48703;SDS011;34502;51.296;16.918;2023-12-14T16:46:33;76.95;;;47.30;;
48703;SDS011;34502;51.296;16.918;2023-12-14T16:48:59;79.05;;;45.95;;
48703;SDS011;34502;51.296;16.918;2023-12-14T16:51:25;82.70;;;51.88;;
48703;SDS011;34502;51.296;16.918;2023-12-14T16:53:52;89.68;;;51.58;;
48703;SDS011;34502;51.296;16.918;2023-12-14T16:56:18;80.05;;;49.33;;
48703;SDS011;34502;51.296;16.918;2023-12-14T16:58:45;76.05;;;44.60;;
48703;SDS011;34502;51.296;16.918;2023-12-14T17:01:16;74.07;;;44.83;;
48703;SDS011;34502;51.296;16.918;2023-12-14T17:03:45;70.28;;;43.05;;
48703;SDS011;34502;51.296;16.918;2023-12-14T17:06:11;62.92;;;40.60;;
48703;SDS011;34502;51.296;16.918;2023-12-14T17:08:47;72.85;;;43.50;;
48703;SDS011;34502;51.296;16.918;2023-12-14T17:11:13;59.47;;;38.45;;
48703;SDS011;34502;51.296;16.918;2023-12-14T17:13:40;56.10;;;33.38;;
48703;SDS011;34502;51.296;16.918;2023-12-14T17:16:18;54.00;;;34.03;;
48703;SDS011;34502;51.296;16.918;2023-12-14T17:18:52;49.97;;;33.00;;
48703;SDS011;34502;51.296;16.918;2023-12-14T17:21:22;47.25;;;29.90;;
48703;SDS011;34502;51.296;16.918;2023-12-14T17:23:49;48.38;;;30.75;;
48703;SDS011;34502;51.296;16.918;2023-12-14T17:26:19;51.75;;;31.25;;
48703;SDS011;34502;51.296;16.918;2023-12-14T17:28:49;54.20;;;35.17;;
48703;SDS011;34502;51.296;16.918;2023-12-14T17:31:17;51.17;;;32.05;;
48703;SDS011;34502;51.296;16.918;2023-12-14T17:33:44;52.08;;;33.50;;
48703;SDS011;34502;51.296;16.918;2023-12-14T17:36:11;56.42;;;36.08;;
48703;SDS011;34502;51.296;16.918;2023-12-14T17:38:38;51.30;;;32.83;;
48703;SDS011;34502;51.296;16.918;2023-12-14T17:41:11;55.65;;;36.15;;
48703;SDS011;34502;51.296;16.918;2023-12-14T17:43:39;59.00;;;36.17;;
48703;SDS011;34502;51.296;16.918;2023-12-14T17:46:06;62.05;;;35.10;;
48703;SDS011;34502;51.296;16.918;2023-12-14T17:48:33;55.30;;;34.88;;
48703;SDS011;34502;51.296;16.918;2023-12-14T17:51:00;55.13;;;35.50;;
48703;SDS011;34502;51.296;16.918;2023-12-14T17:53:26;58.47;;;38.10;;
48703;SDS011;34502;51.296;16.918;2023-12-14T17:55:52;64.93;;;40.22;;
48703;SDS011;34502;51.296;16.918;2023-12-14T17:58:18;73.63;;;42.30;;
48703;SDS011;34502;51.296;16.918;2023-12-14T18:00:44;66.35;;;43.17;;
48703;SDS011;34502;51.296;16.918;2023-12-14T18:03:11;67.55;;;43.00;;
48703;SDS011;34502;51.296;16.918;2023-12-14T18:05:37;72.38;;;46.22;;
48703;SDS011;34502;51.296;16.918;2023-12-14T18:08:03;66.13;;;43.72;;
48703;SDS011;34502;51.296;16.918;2023-12-14T18:10:29;57.13;;;38.53;;
48703;SDS011;34502;51.296;16.918;2023-12-14T18:12:56;61.58;;;38.75;;
48703;SDS011;34502;51.296;16.918;2023-12-14T18:15:24;60.35;;;36.55;;
48703;SDS011;34502;51.296;16.918;2023-12-14T18:17:58;46.45;;;31.23;;
48703;SDS011;34502;51.296;16.918;2023-12-14T18:20:24;43.85;;;30.23;;
48703;SDS011;34502;51.296;16.918;2023-12-14T18:22:50;42.22;;;27.15;;
48703;SDS011;34502;51.296;16.918;2023-12-14T18:25:17;41.00;;;24.50;;
48703;SDS011;34502;51.296;16.918;2023-12-14T18:27:47;40.47;;;25.58;;
48703;SDS011;34502;51.296;16.918;2023-12-14T18:30:16;40.72;;;25.45;;
48703;SDS011;34502;51.296;16.918;2023-12-14T18:32:50;45.15;;;27.08;;
48703;SDS011;34502;51.296;16.918;2023-12-14T18:35:17;41.60;;;24.95;;
48703;SDS011;34502;51.296;16.918;2023-12-14T18:37:43;40.80;;;24.88;;
48703;SDS011;34502;51.296;16.918;2023-12-14T18:40:09;38.00;;;22.73;;
48703;SDS011;34502;51.296;16.918;2023-12-14T18:42:36;36.65;;;22.65;;
48703;SDS011;34502;51.296;16.918;2023-12-14T18:45:02;44.40;;;25.20;;
48703;SDS011;34502;51.296;16.918;2023-12-14T18:47:29;32.47;;;21.17;;
48703;SDS011;34502;51.296;16.918;2023-12-14T18:49:55;36.50;;;22.15;;
48703;SDS011;34502;51.296;16.918;2023-12-14T18:52:28;35.17;;;22.20;;
48703;SDS011;34502;51.296;16.918;2023-12-14T18:54:56;34.88;;;22.35;;
48703;SDS011;34502;51.296;16.918;2023-12-14T18:57:22;37.30;;;22.25;;
48703;SDS011;34502;51.296;16.918;2023-12-14T18:59:51;37.72;;;22.63;;
48703;SDS011;34502;51.296;16.918;2023-12-14T19:02:17;40.83;;;24.60;;
48703;SDS011;34502;51.296;16.918;2023-12-14T19:04:52;39.35;;;24.58;;
48703;SDS011;34502;51.296;16.918;2023-12-14T19:07:18;43.35;;;26.08;;
48703;SDS011;34502;51.296;16.918;2023-12-14T19:09:47;48.30;;;27.58;;
48703;SDS011;34502;51.296;16.918;2023-12-14T19:12:13;43.97;;;26.73;;
48703;SDS011;34502;51.296;16.918;2023-12-14T19:14:39;59.92;;;32.20;;
48703;SDS011;34502;51.296;16.918;2023-12-14T19:17:05;63.20;;;32.72;;
48703;SDS011;34502;51.296;16.918;2023-12-14T19:19:31;69.57;;;37.35;;
48703;SDS011;34502;51.296;16.918;2023-12-14T19:21:58;61.85;;;34.30;;
48703;SDS011;34502;51.296;16.918;2023-12-14T19:24:24;55.58;;;33.22;;
48703;SDS011;34502;51.296;16.918;2023-12-14T19:26:52;59.45;;;33.83;;
48703;SDS011;34502;51.296;16.918;2023-12-14T19:29:18;55.80;;;30.13;;
48703;SDS011;34502;51.296;16.918;2023-12-14T19:31:44;46.60;;;28.45;;
48703;SDS011;34502;51.296;16.918;2023-12-14T19:34:10;44.88;;;25.25;;
48703;SDS011;34502;51.296;16.918;2023-12-14T19:36:39;41.85;;;24.15;;
48703;SDS011;34502;51.296;16.918;2023-12-14T19:39:05;42.05;;;22.73;;
48703;SDS011;34502;51.296;16.918;2023-12-14T19:41:31;43.47;;;25.70;;
48703;SDS011;34502;51.296;16.918;2023-12-14T19:43:58;42.92;;;24.73;;
48703;SDS011;34502;51.296;16.918;2023-12-14T19:46:26;43.63;;;26.40;;
48703;SDS011;34502;51.296;16.918;2023-12-14T19:48:57;43.03;;;24.33;;
48703;SDS011;34502;51.296;16.918;2023-12-14T19:51:23;39.25;;;24.27;;
48703;SDS011;34502;51.296;16.918;2023-12-14T19:53:51;38.53;;;23.25;;
48703;SDS011;34502;51.296;16.918;2023-12-14T19:56:20;44.53;;;24.65;;
48703;SDS011;34502;51.296;16.918;2023-12-14T19:58:46;52.47;;;29.70;;
48703;SDS011;34502;51.296;16.918;2023-12-14T20:01:12;47.60;;;27.73;;
48703;SDS011;34502;51.296;16.918;2023-12-14T20:03:39;47.60;;;25.70;;
48703;SDS011;34502;51.296;16.918;2023-12-14T20:06:05;52.08;;;28.08;;
48703;SDS011;34502;51.296;16.918;2023-12-14T20:08:31;54.83;;;29.98;;
48703;SDS011;34502;51.296;16.918;2023-12-14T20:10:58;55.33;;;28.50;;
48703;SDS011;34502;51.296;16.918;2023-12-14T20:13:24;58.05;;;29.95;;
48703;SDS011;34502;51.296;16.918;2023-12-14T20:15:57;53.58;;;28.02;;
48703;SDS011;34502;51.296;16.918;2023-12-14T20:18:23;59.92;;;30.35;;
48703;SDS011;34502;51.296;16.918;2023-12-14T20:20:51;73.10;;;33.15;;
48703;SDS011;34502;51.296;16.918;2023-12-14T20:23:18;55.53;;;28.70;;
48703;SDS011;34502;51.296;16.918;2023-12-14T20:25:44;56.28;;;29.02;;
48703;SDS011;34502;51.296;16.918;2023-12-14T20:28:10;49.58;;;26.67;;
48703;SDS011;34502;51.296;16.918;2023-12-14T20:30:36;49.60;;;28.23;;
48703;SDS011;34502;51.296;16.918;2023-12-14T20:33:05;52.40;;;28.92;;
48703;SDS011;34502;51.296;16.918;2023-12-14T20:35:31;80.13;;;37.47;;
48703;SDS011;34502;51.296;16.918;2023-12-14T20:37:57;86.05;;;40.92;;
48703;SDS011;34502;51.296;16.918;2023-12-14T20:40:26;83.63;;;44.17;;
48703;SDS011;34502;51.296;16.918;2023-12-14T20:42:53;81.38;;;40.08;;
48703;SDS011;34502;51.296;16.918;2023-12-14T20:45:19;74.93;;;37.22;;
48703;SDS011;34502;51.296;16.918;2023-12-14T20:47:45;70.93;;;36.95;;
48703;SDS011;34502;51.296;16.918;2023-12-14T20:50:11;76.35;;;38.25;;
48703;SDS011;34502;51.296;16.918;2023-12-14T20:52:37;64.85;;;34.10;;
48703;SDS011;34502;51.296;16.918;2023-12-14T20:55:07;69.55;;;36.20;;
48703;SDS011;34502;51.296;16.918;2023-12-14T20:57:34;69.25;;;35.72;;
48703;SDS011;34502;51.296;16.918;2023-12-14T21:00:00;60.63;;;32.65;;
48703;SDS011;34502;51.296;16.918;2023-12-14T21:02:26;69.78;;;36.28;;
48703;SDS011;34502;51.296;16.918;2023-12-14T21:04:52;59.35;;;31.70;;
48703;SDS011;34502;51.296;16.918;2023-12-14T21:07:18;60.95;;;31.60;;
48703;SDS011;34502;51.296;16.918;2023-12-14T21:09:44;65.88;;;32.72;;
48703;SDS011;34502;51.296;16.918;2023-12-14T21:12:13;66.50;;;31.48;;
48703;SDS011;34502;51.296;16.918;2023-12-14T21:14:39;56.38;;;28.63;;
48703;SDS011;34502;51.296;16.918;2023-12-14T21:17:08;52.70;;;28.10;;
48703;SDS011;34502;51.296;16.918;2023-12-14T21:19:34;58.53;;;27.98;;
48703;SDS011;34502;51.296;16.918;2023-12-14T21:22:11;57.80;;;29.75;;
48703;SDS011;34502;51.296;16.918;2023-12-14T21:24:37;61.08;;;31.20;;
48703;SDS011;34502;51.296;16.918;2023-12-14T21:27:05;58.13;;;30.05;;
48703;SDS011;34502;51.296;16.918;2023-12-14T21:29:53;51.67;;;28.83;;
48703;SDS011;34502;51.296;16.918;2023-12-14T21:32:20;55.08;;;28.95;;
48703;SDS011;34502;51.296;16.918;2023-12-14T21:34:46;52.92;;;27.60;;
48703;SDS011;34502;51.296;16.918;2023-12-14T21:37:13;56.88;;;28.02;;
48703;SDS011;34502;51.296;16.918;2023-12-14T21:39:42;51.38;;;29.40;;
48703;SDS011;34502;51.296;16.918;2023-12-14T21:42:10;54.13;;;29.10;;
48703;SDS011;34502;51.296;16.918;2023-12-14T21:44:36;47.83;;;26.10;;
48703;SDS011;34502;51.296;16.918;2023-12-14T21:47:05;46.65;;;26.20;;
48703;SDS011;34502;51.296;16.918;2023-12-14T21:49:31;46.13;;;25.30;;
48703;SDS011;34502;51.296;16.918;2023-12-14T21:52:00;45.22;;;24.38;;
48703;SDS011;34502;51.296;16.918;2023-12-14T21:54:26;42.05;;;24.90;;
48703;SDS011;34502;51.296;16.918;2023-12-14T21:56:52;42.45;;;25.60;;
48703;SDS011;34502;51.296;16.918;2023-12-14T21:59:18;42.47;;;25.05;;
